createdAt,value
2019-02-02T00:00:35.324Z,1.30
2019-02-02T00:03:05.043Z,1.20
2019-02-02T00:05:34.634Z,1.20
2019-02-02T00:08:03.896Z,1.20
2019-02-02T00:10:32.669Z,1.20
2019-02-02T00:13:01.409Z,1.10
2019-02-02T00:15:30.248Z,1.10
2019-02-02T00:17:59.073Z,1.10
2019-02-02T00:20:27.837Z,1.10
2019-02-02T00:22:56.665Z,1.20
2019-02-02T00:25:25.428Z,1.10
2019-02-02T00:27:54.243Z,1.10
2019-02-02T00:30:23.003Z,1.00
2019-02-02T00:32:51.738Z,1.00
2019-02-02T00:35:20.541Z,1.00
2019-02-02T00:37:49.273Z,1.00
2019-02-02T00:40:19.508Z,1.00
2019-02-02T00:42:48.236Z,1.10
2019-02-02T00:45:21.222Z,1.10
2019-02-02T00:47:50.265Z,1.10
2019-02-02T00:50:19.330Z,1.20
2019-02-02T00:52:49.379Z,1.20
2019-02-02T00:55:19.336Z,1.20
2019-02-02T00:57:53.655Z,1.20
2019-02-02T01:00:20.405Z,1.20
2019-02-02T01:02:49.237Z,1.20
2019-02-02T01:05:19.486Z,1.20
2019-02-02T01:07:48.706Z,1.20
2019-02-02T01:10:32.653Z,1.30
2019-02-02T01:13:01.540Z,1.40
2019-02-02T01:15:30.569Z,1.40
2019-02-02T01:17:59.349Z,1.40
2019-02-02T01:20:28.178Z,1.40
2019-02-02T01:22:56.940Z,1.40
2019-02-02T01:25:25.672Z,1.40
2019-02-02T01:28:04.998Z,1.40
2019-02-02T01:30:26.321Z,1.40
2019-02-02T01:32:55.096Z,1.50
2019-02-02T01:35:23.838Z,1.60
2019-02-02T01:37:52.652Z,1.60
2019-02-02T01:40:26.625Z,1.60
2019-02-02T01:42:55.967Z,1.60
2019-02-02T01:45:28.913Z,1.70
2019-02-02T01:47:58.581Z,1.70
2019-02-02T01:50:28.684Z,1.70
2019-02-02T01:52:57.772Z,1.70
2019-02-02T01:55:26.737Z,1.80
2019-02-02T01:57:55.555Z,1.80
2019-02-02T02:00:32.401Z,1.80
2019-02-02T02:03:01.241Z,1.80
2019-02-02T02:05:30.273Z,1.80
2019-02-02T02:07:59.513Z,1.80
2019-02-02T02:10:28.273Z,1.80
2019-02-02T02:12:57.006Z,1.70
2019-02-02T02:15:25.808Z,1.70
2019-02-02T02:17:54.541Z,1.80
2019-02-02T02:20:24.361Z,1.80
2019-02-02T02:22:53.320Z,1.80
2019-02-02T02:25:22.354Z,1.80
2019-02-02T02:27:52.004Z,1.80
2019-02-02T02:30:22.581Z,1.80
2019-02-02T02:32:52.070Z,1.80
2019-02-02T02:35:21.005Z,1.80
2019-02-02T02:37:49.973Z,1.70
2019-02-02T02:40:20.640Z,1.70
2019-02-02T02:42:49.603Z,1.70
2019-02-02T02:45:18.345Z,1.70
2019-02-02T02:47:47.409Z,1.60
2019-02-02T02:50:18.143Z,1.70
2019-02-02T02:52:46.941Z,1.70
2019-02-02T02:55:16.881Z,1.70
2019-02-02T02:57:45.821Z,1.70
2019-02-02T03:00:17.221Z,1.70
2019-02-02T03:02:46.048Z,1.80
2019-02-02T03:05:15.393Z,1.70
2019-02-02T03:07:44.691Z,1.70
2019-02-02T03:10:15.919Z,1.70
2019-02-02T03:12:44.753Z,1.70
2019-02-02T03:15:15.769Z,1.70
2019-02-02T03:17:44.716Z,1.80
2019-02-02T03:20:15.317Z,1.80
2019-02-02T03:22:44.349Z,1.80
2019-02-02T03:25:15.658Z,1.70
2019-02-02T03:27:44.608Z,1.70
2019-02-02T03:30:15.654Z,1.70
2019-02-02T03:32:44.528Z,1.80
2019-02-02T03:35:15.585Z,1.80
2019-02-02T03:37:44.331Z,1.80
2019-02-02T03:40:18.348Z,1.80
2019-02-02T03:42:47.082Z,1.80
2019-02-02T03:45:20.872Z,1.80
2019-02-02T03:47:50.504Z,1.80
2019-02-02T03:50:19.368Z,1.80
2019-02-02T03:52:48.128Z,1.70
2019-02-02T03:55:16.988Z,1.80
2019-02-02T03:57:45.726Z,1.90
2019-02-02T04:00:16.697Z,1.90
2019-02-02T04:02:46.074Z,1.90
2019-02-02T04:05:17.337Z,1.80
2019-02-02T04:07:46.074Z,1.80
2019-02-02T04:10:15.419Z,1.80
2019-02-02T04:12:44.184Z,1.80
2019-02-02T04:15:17.341Z,1.80
2019-02-02T04:17:46.108Z,1.80
2019-02-02T04:20:17.144Z,1.80
2019-02-02T04:22:46.089Z,1.80
2019-02-02T04:25:15.220Z,1.80
2019-02-02T04:27:43.989Z,1.80
2019-02-02T04:30:15.797Z,1.80
2019-02-02T04:32:44.652Z,1.80
2019-02-02T04:35:13.378Z,1.80
2019-02-02T04:37:42.141Z,1.80
2019-02-02T04:40:15.345Z,1.80
2019-02-02T04:42:44.121Z,1.80
2019-02-02T04:45:15.547Z,1.80
2019-02-02T04:47:44.509Z,1.90
2019-02-02T04:50:18.589Z,1.90
2019-02-02T04:52:47.354Z,2.00
2019-02-02T04:55:18.034Z,1.90
2019-02-02T04:57:47.067Z,2.00
2019-02-02T05:00:18.896Z,1.90
2019-02-02T05:02:47.632Z,1.90
2019-02-02T05:05:17.693Z,2.00
2019-02-02T05:07:46.479Z,2.00
2019-02-02T05:10:20.590Z,2.00
2019-02-02T05:12:49.516Z,2.10
2019-02-02T05:15:18.381Z,2.10
2019-02-02T05:17:47.119Z,2.10
2019-02-02T05:20:18.125Z,2.00
2019-02-02T05:22:46.816Z,2.00
2019-02-02T05:25:15.720Z,2.10
2019-02-02T05:27:44.561Z,2.10
2019-02-02T05:30:21.554Z,2.10
2019-02-02T05:32:50.291Z,2.10
2019-02-02T05:35:19.130Z,2.20
2019-02-02T05:37:47.901Z,2.10
2019-02-02T05:40:18.707Z,2.10
2019-02-02T05:42:47.566Z,2.10
2019-02-02T05:45:18.905Z,2.10
2019-02-02T05:47:48.249Z,2.20
2019-02-02T05:50:19.069Z,2.20
2019-02-02T05:52:47.917Z,2.20
2019-02-02T05:55:18.552Z,2.20
2019-02-02T05:57:47.359Z,2.20
2019-02-02T06:00:20.430Z,2.20
2019-02-02T06:02:49.269Z,2.20
2019-02-02T06:05:18.065Z,2.20
2019-02-02T06:07:46.833Z,2.30
2019-02-02T06:10:17.754Z,2.20
2019-02-02T06:12:46.512Z,2.20
2019-02-02T06:15:16.175Z,2.20
2019-02-02T06:17:44.916Z,2.20
2019-02-02T06:20:16.909Z,2.20
2019-02-02T06:22:45.680Z,2.20
2019-02-02T06:25:17.605Z,2.20
2019-02-02T06:27:46.533Z,2.20
2019-02-02T06:30:23.367Z,2.20
2019-02-02T06:32:52.136Z,2.20
2019-02-02T06:35:21.090Z,2.20
2019-02-02T06:37:52.885Z,2.30
2019-02-02T06:40:21.602Z,2.30
2019-02-02T06:42:50.345Z,2.30
2019-02-02T06:45:22.284Z,2.30
2019-02-02T06:47:51.041Z,2.30
2019-02-02T06:50:19.809Z,2.40
2019-02-02T06:52:48.544Z,2.40
2019-02-02T06:55:17.720Z,2.40
2019-02-02T06:57:46.448Z,2.40
2019-02-02T07:00:18.005Z,2.40
2019-02-02T07:02:47.647Z,2.40
2019-02-02T07:05:16.491Z,2.40
2019-02-02T07:07:45.608Z,2.40
2019-02-02T07:10:19.687Z,2.40
2019-02-02T07:12:50.535Z,2.40
2019-02-02T07:15:21.870Z,2.40
2019-02-02T07:17:51.208Z,2.40
2019-02-02T07:20:19.972Z,2.40
2019-02-02T07:22:48.708Z,2.50
2019-02-02T07:25:17.979Z,2.40
2019-02-02T07:27:46.737Z,2.50
2019-02-02T07:30:28.287Z,2.50
2019-02-02T07:32:48.731Z,2.60
2019-02-02T07:35:17.805Z,2.60
2019-02-02T07:37:46.981Z,2.50
2019-02-02T07:40:17.944Z,2.50
2019-02-02T07:42:47.051Z,2.60
2019-02-02T07:45:21.384Z,2.60
2019-02-02T07:47:52.600Z,2.50
2019-02-02T07:50:21.473Z,2.60
2019-02-02T07:52:50.737Z,2.60
2019-02-02T07:55:21.269Z,2.60
2019-02-02T07:57:50.217Z,2.70
2019-02-02T08:00:24.665Z,2.60
2019-02-02T08:02:53.965Z,2.70
2019-02-02T08:05:23.141Z,2.80
2019-02-02T08:07:52.004Z,2.80
2019-02-02T08:10:20.901Z,2.80
2019-02-02T08:12:50.135Z,2.70
2019-02-02T08:15:21.658Z,2.70
2019-02-02T08:17:50.489Z,2.70
2019-02-02T08:20:19.223Z,2.70
2019-02-02T08:22:47.997Z,2.80
2019-02-02T08:25:20.973Z,2.80
2019-02-02T08:27:49.969Z,2.80
2019-02-02T08:30:21.375Z,2.80
2019-02-02T08:32:50.267Z,2.80
2019-02-02T08:35:19.369Z,2.70
2019-02-02T08:37:48.764Z,2.70
2019-02-02T08:40:19.533Z,2.80
2019-02-02T08:42:48.489Z,2.80
2019-02-02T08:45:18.796Z,2.80
2019-02-02T08:47:49.065Z,2.80
2019-02-02T08:50:20.790Z,2.90
2019-02-02T08:52:49.533Z,2.90
2019-02-02T08:55:18.427Z,3.00
2019-02-02T08:57:48.969Z,3.00
2019-02-02T09:00:19.805Z,3.00
2019-02-02T09:02:48.677Z,3.10
2019-02-02T09:05:21.837Z,3.10
2019-02-02T09:07:53.637Z,3.10
2019-02-02T09:10:27.540Z,3.20
2019-02-02T09:12:57.090Z,3.30
2019-02-02T09:15:26.242Z,3.30
2019-02-02T09:17:55.072Z,3.30
2019-02-02T09:20:23.848Z,3.40
2019-02-02T09:23:03.995Z,3.40
2019-02-02T09:25:22.993Z,3.40
2019-02-02T09:28:11.115Z,3.40
2019-02-02T09:30:40.997Z,3.40
2019-02-02T09:33:09.741Z,3.40
2019-02-02T09:35:38.602Z,3.40
2019-02-02T09:38:07.368Z,3.40
2019-02-02T09:40:36.124Z,3.40
2019-02-02T09:43:04.908Z,3.50
2019-02-02T09:45:35.004Z,3.60
2019-02-02T09:48:03.769Z,3.60
2019-02-02T09:50:32.500Z,3.70
2019-02-02T09:53:01.272Z,3.70
2019-02-02T09:55:30.080Z,3.70
2019-02-02T09:58:04.589Z,3.70
2019-02-02T10:00:33.988Z,3.60
2019-02-02T10:03:02.739Z,3.60
2019-02-02T10:05:32.107Z,3.70
2019-02-02T10:08:01.060Z,3.80
2019-02-02T10:10:32.008Z,4.00
2019-02-02T10:13:00.846Z,4.20
2019-02-02T10:15:29.608Z,4.30
2019-02-02T10:17:58.341Z,4.50
2019-02-02T10:20:29.016Z,4.80
2019-02-02T10:22:59.325Z,4.90
2019-02-02T10:25:29.706Z,5.00
2019-02-02T10:27:58.629Z,4.90
2019-02-02T10:30:32.368Z,4.90
2019-02-02T10:33:01.088Z,4.80
2019-02-02T10:35:29.853Z,4.60
2019-02-02T10:37:58.587Z,4.60
2019-02-02T10:40:29.933Z,4.50
2019-02-02T10:42:57.855Z,4.40
2019-02-02T10:45:26.592Z,4.30
2019-02-02T10:47:55.552Z,4.20
2019-02-02T10:50:26.060Z,4.20
2019-02-02T10:52:54.853Z,4.10
2019-02-02T10:55:25.302Z,4.00
2019-02-02T10:57:54.113Z,4.00
2019-02-02T11:00:31.554Z,4.00
2019-02-02T11:03:00.321Z,4.10
2019-02-02T11:05:29.073Z,4.10
2019-02-02T11:07:58.193Z,4.20
2019-02-02T11:10:34.952Z,4.30
2019-02-02T11:13:03.823Z,4.50
2019-02-02T11:15:32.692Z,4.80
2019-02-02T11:18:01.700Z,4.80
2019-02-02T11:20:32.650Z,4.80
2019-02-02T11:23:01.357Z,4.80
2019-02-02T11:25:30.371Z,4.80
2019-02-02T11:27:59.282Z,4.80
2019-02-02T11:30:29.299Z,4.80
2019-02-02T11:32:57.996Z,4.90
2019-02-02T11:35:26.769Z,5.10
2019-02-02T11:37:55.501Z,5.10
2019-02-02T11:40:34.828Z,5.10
2019-02-02T11:43:04.230Z,5.20
2019-02-02T11:45:33.086Z,5.20
2019-02-02T11:48:01.815Z,5.20
2019-02-02T11:50:30.593Z,5.20
2019-02-02T11:52:59.318Z,5.30
2019-02-02T11:55:29.158Z,5.30
2019-02-02T11:57:57.881Z,5.40
2019-02-02T12:00:38.736Z,5.40
2019-02-02T12:03:07.666Z,5.40
2019-02-02T12:05:36.531Z,5.40
2019-02-02T12:08:05.867Z,5.40
2019-02-02T12:10:35.702Z,5.40
2019-02-02T12:13:05.085Z,5.50
2019-02-02T12:15:33.854Z,5.60
2019-02-02T12:18:02.704Z,5.70
2019-02-02T12:20:33.404Z,5.70
2019-02-02T12:23:01.904Z,5.70
2019-02-02T12:25:30.750Z,5.80
2019-02-02T12:27:59.510Z,5.70
2019-02-02T12:30:30.845Z,5.70
2019-02-02T12:33:03.391Z,5.80
2019-02-02T12:35:40.576Z,5.90
2019-02-02T12:38:09.437Z,5.90
2019-02-02T12:40:38.160Z,5.90
2019-02-02T12:43:06.934Z,6.00
2019-02-02T12:45:44.793Z,6.10
2019-02-02T12:48:13.658Z,6.20
2019-02-02T12:50:42.493Z,6.30
2019-02-02T12:53:11.253Z,6.30
2019-02-02T12:55:39.976Z,6.30
2019-02-02T12:58:08.827Z,6.30
2019-02-02T13:00:37.553Z,6.20
2019-02-02T13:03:06.713Z,6.10
2019-02-02T13:05:35.449Z,6.20
2019-02-02T13:08:05.356Z,6.30
2019-02-02T13:10:34.633Z,6.30
2019-02-02T13:13:03.396Z,6.30
2019-02-02T13:15:32.117Z,6.30
2019-02-02T13:18:00.957Z,6.40
2019-02-02T13:20:29.717Z,6.20
2019-02-02T13:22:58.446Z,6.30
2019-02-02T13:25:27.710Z,6.30
2019-02-02T13:27:56.533Z,6.30
2019-02-02T13:30:46.416Z,6.40
2019-02-02T13:33:15.181Z,6.30
2019-02-02T13:35:45.524Z,6.20
2019-02-02T13:38:14.221Z,6.20
2019-02-02T13:40:43.061Z,6.20
2019-02-02T13:43:11.859Z,6.10
2019-02-02T13:45:40.624Z,6.10
2019-02-02T13:48:09.396Z,6.10
2019-02-02T13:50:38.246Z,6.10
2019-02-02T13:53:07.478Z,6.10
2019-02-02T13:55:36.234Z,6.10
2019-02-02T13:58:05.333Z,6.10
2019-02-02T14:00:34.913Z,6.10
2019-02-02T14:03:04.182Z,6.00
2019-02-02T14:05:33.053Z,6.00
2019-02-02T14:08:01.881Z,6.00
2019-02-02T14:10:32.933Z,6.00
2019-02-02T14:13:01.684Z,6.10
2019-02-02T14:15:30.520Z,6.10
2019-02-02T14:18:01.056Z,6.10
2019-02-02T14:20:29.973Z,6.10
2019-02-02T14:23:17.940Z,6.00
2019-02-02T14:25:46.697Z,6.10
2019-02-02T14:28:27.613Z,6.10
2019-02-02T14:30:47.639Z,6.10
2019-02-02T14:33:16.481Z,6.10
2019-02-02T14:35:45.424Z,6.00
2019-02-02T14:38:14.395Z,6.10
2019-02-02T14:40:43.318Z,6.00
2019-02-02T14:43:12.148Z,6.00
2019-02-02T14:45:40.949Z,6.00
2019-02-02T14:48:09.725Z,6.00
2019-02-02T14:50:40.138Z,6.00
2019-02-02T14:53:10.433Z,5.90
2019-02-02T14:55:39.841Z,5.90
2019-02-02T14:58:08.806Z,5.90
2019-02-02T15:00:37.544Z,5.80
2019-02-02T15:03:06.533Z,5.80
2019-02-02T15:05:42.451Z,5.80
2019-02-02T15:08:05.736Z,5.70
2019-02-02T15:10:34.560Z,5.60
2019-02-02T15:13:03.360Z,5.50
2019-02-02T15:15:32.230Z,5.50
2019-02-02T15:18:00.962Z,5.50
2019-02-02T15:20:36.657Z,5.50
2019-02-02T15:23:06.095Z,5.50
2019-02-02T15:25:34.952Z,5.40
2019-02-02T15:28:03.717Z,5.40
2019-02-02T15:30:34.740Z,5.40
2019-02-02T15:33:03.678Z,5.40
2019-02-02T15:35:32.441Z,5.30
2019-02-02T15:38:01.237Z,5.40
2019-02-02T15:40:31.590Z,5.40
2019-02-02T15:43:00.529Z,5.40
2019-02-02T15:45:31.306Z,5.40
2019-02-02T15:48:00.303Z,5.40
2019-02-02T15:50:29.256Z,5.40
2019-02-02T15:52:58.062Z,5.40
2019-02-02T15:55:26.829Z,5.50
2019-02-02T15:57:55.549Z,5.50
2019-02-02T16:00:26.452Z,5.40
2019-02-02T16:02:55.177Z,5.30
2019-02-02T16:05:24.411Z,5.40
2019-02-02T16:07:53.273Z,5.30
2019-02-02T16:10:33.029Z,5.40
2019-02-02T16:13:02.005Z,5.40
2019-02-02T16:15:33.931Z,5.30
2019-02-02T16:18:01.261Z,5.40
2019-02-02T16:20:32.699Z,5.30
2019-02-02T16:23:01.457Z,5.20
2019-02-02T16:25:30.194Z,5.20
2019-02-02T16:27:59.025Z,5.20
2019-02-02T16:30:31.203Z,5.20
2019-02-02T16:33:00.062Z,5.20
2019-02-02T16:35:28.797Z,5.20
2019-02-02T16:37:57.556Z,5.10
2019-02-02T16:40:30.412Z,5.10
2019-02-02T16:42:59.490Z,5.10
2019-02-02T16:45:33.361Z,5.10
2019-02-02T16:48:02.129Z,5.20
2019-02-02T16:50:30.894Z,5.10
2019-02-02T16:52:59.743Z,5.10
2019-02-02T16:55:28.615Z,5.10
2019-02-02T16:57:57.496Z,5.10
2019-02-02T17:00:31.273Z,5.00
2019-02-02T17:03:00.284Z,5.00
2019-02-02T17:05:29.345Z,5.00
2019-02-02T17:07:58.166Z,4.90
2019-02-02T17:10:32.005Z,4.90
2019-02-02T17:13:00.737Z,4.90
2019-02-02T17:15:29.545Z,4.90
2019-02-02T17:17:58.273Z,4.90
2019-02-02T17:20:32.717Z,4.90
2019-02-02T17:23:01.498Z,4.90
2019-02-02T17:25:30.331Z,4.90
2019-02-02T17:27:59.094Z,4.90
2019-02-02T17:30:27.824Z,4.80
2019-02-02T17:33:01.951Z,4.90
2019-02-02T17:35:30.745Z,4.80
2019-02-02T17:37:59.567Z,4.80
2019-02-02T17:40:29.630Z,4.80
2019-02-02T17:42:59.898Z,4.70
2019-02-02T17:45:28.757Z,4.70
2019-02-02T17:48:00.953Z,4.60
2019-02-02T17:50:30.528Z,4.50
2019-02-02T17:52:59.283Z,4.40
2019-02-02T17:55:28.028Z,4.40
2019-02-02T17:57:56.812Z,4.30
2019-02-02T18:00:47.754Z,4.30
2019-02-02T18:03:16.593Z,4.20
2019-02-02T18:05:45.326Z,4.20
2019-02-02T18:08:15.732Z,4.10
2019-02-02T18:10:44.440Z,4.10
2019-02-02T18:13:13.612Z,4.10
2019-02-02T18:15:42.731Z,4.20
2019-02-02T18:18:11.646Z,4.10
2019-02-02T18:20:40.408Z,4.10
2019-02-02T18:23:09.149Z,4.10
2019-02-02T18:25:37.897Z,4.00
2019-02-02T18:28:06.648Z,4.00
2019-02-02T18:30:35.666Z,4.00
2019-02-02T18:33:05.012Z,4.00
2019-02-02T18:35:33.808Z,3.90
2019-02-02T18:38:02.544Z,3.90
2019-02-02T18:40:31.686Z,3.90
2019-02-02T18:43:00.484Z,3.90
2019-02-02T18:45:31.442Z,3.90
2019-02-02T18:48:00.158Z,3.80
2019-02-02T18:50:29.234Z,3.80
2019-02-02T18:52:59.730Z,3.90
2019-02-02T18:55:31.629Z,3.90
2019-02-02T18:58:00.510Z,4.00
2019-02-02T19:00:29.704Z,3.90
2019-02-02T19:02:58.498Z,4.00
2019-02-02T19:05:29.215Z,3.90
2019-02-02T19:07:58.080Z,3.90
2019-02-02T19:10:35.689Z,4.00
2019-02-02T19:13:05.824Z,4.00
2019-02-02T19:15:35.524Z,4.10
2019-02-02T19:18:05.181Z,4.10
2019-02-02T19:20:35.507Z,4.10
2019-02-02T19:23:04.872Z,4.10
2019-02-02T19:25:33.880Z,4.10
2019-02-02T19:28:02.875Z,4.20
2019-02-02T19:30:35.751Z,4.20
2019-02-02T19:33:05.776Z,4.20
2019-02-02T19:35:34.613Z,4.20
2019-02-02T19:38:03.809Z,4.20
2019-02-02T19:40:32.570Z,4.10
2019-02-02T19:43:01.333Z,4.20
2019-02-02T19:45:30.433Z,4.10
2019-02-02T19:47:59.195Z,4.10
2019-02-02T19:50:29.229Z,4.10
2019-02-02T19:52:59.746Z,4.10
2019-02-02T19:55:28.759Z,4.00
2019-02-02T19:57:57.531Z,4.10
2019-02-02T20:00:31.626Z,3.90
2019-02-02T20:03:00.762Z,3.90
2019-02-02T20:05:29.526Z,3.80
2019-02-02T20:07:58.367Z,3.80
2019-02-02T20:10:27.455Z,3.80
2019-02-02T20:12:56.463Z,3.70
2019-02-02T20:15:28.694Z,3.70
2019-02-02T20:18:08.910Z,3.60
2019-02-02T20:20:29.320Z,3.50
2019-02-02T20:22:58.207Z,3.50
2019-02-02T20:25:27.491Z,3.50
2019-02-02T20:28:01.465Z,3.50
2019-02-02T20:30:32.157Z,3.50
2019-02-02T20:33:01.091Z,3.50
2019-02-02T20:35:40.300Z,3.40
2019-02-02T20:38:02.210Z,3.40
2019-02-02T20:40:31.358Z,3.40
2019-02-02T20:43:00.230Z,3.40
2019-02-02T20:45:32.891Z,3.40
2019-02-02T20:48:01.736Z,3.50
2019-02-02T20:50:30.930Z,3.50
2019-02-02T20:53:01.545Z,3.40
2019-02-02T20:55:35.588Z,3.40
2019-02-02T20:58:07.242Z,3.50
2019-02-02T21:00:36.431Z,3.60
2019-02-02T21:03:05.686Z,3.50
2019-02-02T21:05:35.212Z,3.50
2019-02-02T21:08:04.926Z,3.50
2019-02-02T21:10:34.013Z,3.60
2019-02-02T21:13:06.990Z,3.60
2019-02-02T21:15:36.469Z,3.60
2019-02-02T21:18:05.513Z,3.60
2019-02-02T21:20:35.616Z,3.60
2019-02-02T21:23:04.621Z,3.50
2019-02-02T21:25:35.378Z,3.50
2019-02-02T21:28:04.929Z,3.50
2019-02-02T21:30:35.671Z,3.50
2019-02-02T21:33:06.975Z,3.50
2019-02-02T21:35:36.210Z,3.50
2019-02-02T21:38:06.060Z,3.50
2019-02-02T21:40:35.862Z,3.50
2019-02-02T21:43:05.452Z,3.40
2019-02-02T21:45:34.629Z,3.50
2019-02-02T21:48:06.355Z,3.50
2019-02-02T21:50:35.905Z,3.40
2019-02-02T21:53:05.144Z,3.40
2019-02-02T21:55:33.913Z,3.40
2019-02-02T21:58:02.653Z,3.40
2019-02-02T22:00:39.753Z,3.40
2019-02-02T22:03:08.490Z,3.40
2019-02-02T22:05:37.269Z,3.50
2019-02-02T22:08:06.909Z,3.40
2019-02-02T22:10:35.740Z,3.40
2019-02-02T22:13:04.880Z,3.40
2019-02-02T22:15:33.705Z,3.40
2019-02-02T22:18:02.450Z,3.40
2019-02-02T22:20:31.235Z,3.40
2019-02-02T22:23:00.005Z,3.30
2019-02-02T22:25:33.118Z,3.30
2019-02-02T22:28:01.888Z,3.30
2019-02-02T22:30:37.882Z,3.40
2019-02-02T22:33:06.873Z,3.40
2019-02-02T22:35:35.604Z,3.40
2019-02-02T22:38:04.573Z,3.40
2019-02-02T22:40:33.305Z,3.40
2019-02-02T22:43:02.066Z,3.40
2019-02-02T22:45:30.809Z,3.40
2019-02-02T22:48:00.330Z,3.40
2019-02-02T22:50:29.887Z,3.40
2019-02-02T22:52:59.087Z,3.40
2019-02-02T22:55:28.289Z,3.30
2019-02-02T22:57:58.002Z,3.30
2019-02-02T23:00:43.858Z,3.20
2019-02-02T23:03:19.125Z,3.20
2019-02-02T23:05:52.542Z,3.20
2019-02-02T23:08:27.580Z,3.10
2019-02-02T23:11:23.990Z,3.10
2019-02-02T23:14:14.075Z,3.00
2019-02-02T23:16:43.664Z,3.00
2019-02-02T23:19:13.306Z,2.90
2019-02-02T23:21:42.594Z,2.90
2019-02-02T23:24:12.610Z,2.80
2019-02-02T23:26:42.319Z,2.70
2019-02-02T23:29:11.597Z,2.60
2019-02-02T23:31:40.329Z,2.50
2019-02-02T23:34:09.093Z,2.50
2019-02-02T23:40:09.710Z,2.50
2019-02-02T23:42:38.481Z,2.60
2019-02-02T23:45:09.126Z,2.60
2019-02-02T23:47:38.776Z,2.60
2019-02-02T23:50:10.611Z,2.60
2019-02-02T23:52:40.441Z,2.50
2019-02-02T23:55:10.506Z,2.60
2019-02-02T23:57:39.957Z,2.60
